Time;durP1;ratioP1;P1;durP2;ratioP2;P2;SDS_P1;SDS_P2;PMS_P1;PMS_P2;Temp;Humidity;BMP_temperature;BMP_pressure;BME280_temperature;BME280_humidity;BME280_pressure;Samples;Min_cycle;Max_cycle;Signal;HPM_P1;HPM_P2
2021/08/11 00:01:59;;;;;;;35.50;14.75;;;;;;;;;;5096777;28;20039;-61
2021/08/11 00:04:25;;;;;;;39.20;15.98;;;;;;;;;;5093224;28;20044;-61
2021/08/11 00:06:51;;;;;;;39.03;15.32;;;;;;;;;;5097780;28;20060;-62
2021/08/11 00:09:17;;;;;;;34.97;14.90;;;;;;;;;;5098014;28;20060;-61
2021/08/11 00:11:44;;;;;;;32.78;15.77;;;;;;;;;;5095554;28;20495;-61
2021/08/11 00:14:10;;;;;;;31.25;15.80;;;;;;;;;;5095724;28;20075;-61
2021/08/11 00:16:36;;;;;;;36.65;16.08;;;;;;;;;;5095223;28;20048;-62
2021/08/11 00:19:02;;;;;;;35.90;17.02;;;;;;;;;;5094549;28;20072;-62
2021/08/11 00:21:29;;;;;;;42.88;18.45;;;;;;;;;;5098921;28;20119;-61
2021/08/11 00:23:55;;;;;;;44.90;18.05;;;;;;;;;;5097176;28;20044;-61
2021/08/11 00:26:21;;;;;;;40.28;18.13;;;;;;;;;;5097001;28;20086;-61
2021/08/11 00:28:48;;;;;;;41.63;19.42;;;;;;;;;;5078548;28;20070;-61
2021/08/11 00:31:14;;;;;;;47.30;18.95;;;;;;;;;;5092563;28;20496;-61
2021/08/11 00:33:40;;;;;;;40.97;19.63;;;;;;;;;;5098963;28;20052;-61
2021/08/11 00:36:08;;;;;;;39.22;17.63;;;;;;;;;;5078798;28;20121;-61
2021/08/11 00:38:35;;;;;;;47.70;19.65;;;;;;;;;;5096546;28;20399;-61
2021/08/11 00:41:06;;;;;;;49.15;20.75;;;;;;;;;;5078573;28;20066;-61
2021/08/11 00:43:33;;;;;;;43.78;19.85;;;;;;;;;;5076266;28;20071;-62
2021/08/11 00:46:00;;;;;;;52.25;20.90;;;;;;;;;;5076819;28;20067;-62
2021/08/11 00:48:27;;;;;;;42.85;20.08;;;;;;;;;;5080392;28;20040;-62
2021/08/11 00:50:57;;;;;;;47.42;22.13;;;;;;;;;;5077296;28;20040;-62
2021/08/11 00:53:27;;;;;;;42.13;20.40;;;;;;;;;;5076737;28;20056;-62
2021/08/11 00:55:55;;;;;;;41.83;20.00;;;;;;;;;;5078164;28;20092;-62
2021/08/11 00:58:22;;;;;;;42.05;20.00;;;;;;;;;;5074381;28;20044;-62
2021/08/11 01:00:51;;;;;;;45.70;22.27;;;;;;;;;;5078980;28;20047;-62
2021/08/11 01:03:18;;;;;;;44.65;21.77;;;;;;;;;;5079749;28;20101;-62
2021/08/11 01:05:45;;;;;;;45.08;21.55;;;;;;;;;;5078344;28;20070;-61
2021/08/11 01:08:12;;;;;;;52.25;22.30;;;;;;;;;;5078312;28;20093;-62
2021/08/11 01:10:39;;;;;;;51.90;22.77;;;;;;;;;;5076064;28;20047;-62
2021/08/11 01:13:05;;;;;;;51.95;23.48;;;;;;;;;;5075066;28;20071;-62
2021/08/11 01:15:33;;;;;;;46.75;23.33;;;;;;;;;;5098178;28;20123;-62
2021/08/11 01:17:59;;;;;;;45.25;23.13;;;;;;;;;;5077945;28;20051;-62
2021/08/11 01:20:26;;;;;;;46.42;22.58;;;;;;;;;;5078026;28;20075;-62
2021/08/11 01:23:01;;;;;;;48.17;21.92;;;;;;;;;;5077676;28;20039;-61
2021/08/11 01:25:32;;;;;;;44.78;22.80;;;;;;;;;;5058739;28;20044;-62
2021/08/11 01:28:15;;;;;;;44.53;21.58;;;;;;;;;;5076390;28;20177;-62
2021/08/11 01:30:49;;;;;;;45.13;23.55;;;;;;;;;;5106637;27;20055;-62
2021/08/11 01:33:34;;;;;;;46.90;22.30;;;;;;;;;;5100353;27;20403;-62
2021/08/11 01:36:12;;;;;;;52.95;23.40;;;;;;;;;;5076226;28;20110;-62
2021/08/11 01:38:41;;;;;;;44.03;22.00;;;;;;;;;;5073038;28;20441;-62
2021/08/11 01:41:11;;;;;;;44.40;21.42;;;;;;;;;;5074511;28;20059;-62
2021/08/11 01:43:40;;;;;;;42.28;24.25;;;;;;;;;;5074552;28;20044;-62
2021/08/11 01:46:07;;;;;;;50.63;23.33;;;;;;;;;;5074696;28;20044;-62
2021/08/11 01:48:38;;;;;;;52.97;25.98;;;;;;;;;;5079125;28;20071;-62
2021/08/11 01:51:06;;;;;;;49.90;23.63;;;;;;;;;;5077304;28;20047;-62
2021/08/11 01:53:32;;;;;;;46.22;23.63;;;;;;;;;;5077121;28;20472;-62
2021/08/11 01:56:03;;;;;;;50.97;24.20;;;;;;;;;;5077489;28;20112;-62
2021/08/11 01:58:38;;;;;;;49.03;24.65;;;;;;;;;;5075848;28;20044;-62
2021/08/11 02:01:07;;;;;;;54.55;24.67;;;;;;;;;;5074220;28;20442;-62
2021/08/11 02:03:35;;;;;;;44.42;22.67;;;;;;;;;;5097410;28;20047;-62
2021/08/11 02:06:02;;;;;;;49.05;23.95;;;;;;;;;;5060742;28;20044;-62
2021/08/11 02:08:28;;;;;;;47.83;24.27;;;;;;;;;;5075764;28;20071;-62
2021/08/11 02:10:56;;;;;;;47.53;24.00;;;;;;;;;;5075798;28;20122;-62
2021/08/11 02:13:24;;;;;;;57.22;24.20;;;;;;;;;;5073639;28;20040;-62
2021/08/11 02:15:52;;;;;;;51.70;26.00;;;;;;;;;;5077777;28;20079;-62
2021/08/11 02:18:20;;;;;;;49.00;25.63;;;;;;;;;;5077720;28;20052;-62
2021/08/11 02:20:50;;;;;;;41.88;21.98;;;;;;;;;;5077751;28;20040;-62
2021/08/11 02:23:18;;;;;;;48.00;23.52;;;;;;;;;;5077290;28;20446;-62
2021/08/11 02:25:47;;;;;;;46.50;22.58;;;;;;;;;;5076429;28;20122;-62
2021/08/11 02:28:25;;;;;;;49.42;23.25;;;;;;;;;;5073069;28;20559;-62
2021/08/11 02:31:05;;;;;;;52.75;24.58;;;;;;;;;;5062967;28;20075;-62
2021/08/11 02:33:35;;;;;;;42.92;21.50;;;;;;;;;;5098474;28;20044;-62
2021/08/11 02:36:04;;;;;;;46.10;22.27;;;;;;;;;;5073772;28;20075;-60
2021/08/11 02:38:37;;;;;;;52.67;24.08;;;;;;;;;;5077142;28;20044;-62
2021/08/11 02:41:10;;;;;;;59.95;25.52;;;;;;;;;;5077151;28;20132;-62
2021/08/11 02:43:45;;;;;;;52.35;22.67;;;;;;;;;;5075107;28;20047;-62
2021/08/11 02:46:15;;;;;;;50.05;22.75;;;;;;;;;;5072743;28;20555;-62
2021/08/11 02:48:44;;;;;;;50.30;22.63;;;;;;;;;;5078760;28;20044;-62
2021/08/11 02:51:10;;;;;;;59.03;25.13;;;;;;;;;;5093040;28;20052;-62
2021/08/11 02:53:40;;;;;;;56.85;24.98;;;;;;;;;;5076992;28;20071;-62
2021/08/11 02:56:06;;;;;;;53.13;21.63;;;;;;;;;;5075467;28;20109;-62
2021/08/11 02:58:33;;;;;;;41.20;19.98;;;;;;;;;;5074609;28;20048;-62
2021/08/11 03:01:01;;;;;;;45.63;21.73;;;;;;;;;;5076684;28;20496;-62
2021/08/11 03:03:28;;;;;;;45.88;20.50;;;;;;;;;;5082375;28;20048;-62
2021/08/11 03:05:55;;;;;;;45.53;20.98;;;;;;;;;;5080229;28;20114;-62
2021/08/11 03:08:23;;;;;;;49.63;21.45;;;;;;;;;;5080631;28;20488;-62
2021/08/11 03:10:50;;;;;;;46.45;22.48;;;;;;;;;;5076361;28;20050;-62
2021/08/11 03:13:16;;;;;;;51.47;21.92;;;;;;;;;;5091617;28;20126;-62
2021/08/11 03:15:43;;;;;;;54.63;22.13;;;;;;;;;;5081258;28;20067;-62
2021/08/11 03:18:10;;;;;;;54.60;24.75;;;;;;;;;;5079493;28;20052;-62
2021/08/11 03:20:38;;;;;;;50.42;22.00;;;;;;;;;;5079326;28;20043;-62
2021/08/11 03:23:06;;;;;;;48.53;23.48;;;;;;;;;;5080007;28;20410;-62
2021/08/11 03:25:36;;;;;;;56.25;23.77;;;;;;;;;;5076262;28;20488;-62
2021/08/11 03:28:02;;;;;;;50.58;21.55;;;;;;;;;;5061257;28;20546;-62
2021/08/11 03:30:31;;;;;;;56.58;22.48;;;;;;;;;;5081636;28;20123;-62
2021/08/11 03:32:57;;;;;;;50.13;21.05;;;;;;;;;;5079483;28;20069;-62
2021/08/11 03:35:25;;;;;;;59.22;21.83;;;;;;;;;;5079146;28;20487;-62
2021/08/11 03:37:54;;;;;;;55.35;22.05;;;;;;;;;;5063482;28;20043;-62
2021/08/11 03:40:21;;;;;;;55.97;22.33;;;;;;;;;;5075774;28;20403;-62
2021/08/11 03:42:48;;;;;;;53.97;23.42;;;;;;;;;;5081399;28;20224;-62
2021/08/11 03:45:15;;;;;;;60.05;24.30;;;;;;;;;;5080240;28;20074;-62
2021/08/11 03:47:45;;;;;;;53.92;23.77;;;;;;;;;;5079990;28;20123;-62
2021/08/11 03:50:12;;;;;;;56.85;22.30;;;;;;;;;;5097461;28;20059;-62
2021/08/11 03:52:41;;;;;;;52.70;21.92;;;;;;;;;;5077891;28;20519;-62
2021/08/11 03:55:09;;;;;;;51.47;20.95;;;;;;;;;;5076366;28;20170;-62
2021/08/11 03:57:35;;;;;;;53.00;21.83;;;;;;;;;;5081556;28;20044;-62
2021/08/11 04:00:04;;;;;;;53.88;22.30;;;;;;;;;;5079565;28;20432;-63
2021/08/11 04:02:30;;;;;;;57.28;24.30;;;;;;;;;;5097251;28;20488;-63
2021/08/11 04:04:57;;;;;;;43.90;20.40;;;;;;;;;;5096164;28;20040;-62
2021/08/11 04:07:23;;;;;;;61.15;21.15;;;;;;;;;;5092151;28;20507;-62
2021/08/11 04:09:49;;;;;;;54.80;21.92;;;;;;;;;;5098490;28;20052;-62
2021/08/11 04:12:15;;;;;;;44.72;21.05;;;;;;;;;;5097246;28;20094;-62
2021/08/11 04:14:42;;;;;;;54.83;22.48;;;;;;;;;;5097216;28;20044;-62
2021/08/11 04:17:08;;;;;;;52.17;23.10;;;;;;;;;;5096983;28;20046;-63
2021/08/11 04:19:35;;;;;;;49.05;21.88;;;;;;;;;;5094998;28;20173;-62
2021/08/11 04:22:01;;;;;;;49.90;22.50;;;;;;;;;;5095148;28;20423;-63
2021/08/11 04:24:28;;;;;;;41.03;21.15;;;;;;;;;;5097993;28;20055;-64
2021/08/11 04:26:54;;;;;;;41.25;21.65;;;;;;;;;;5097105;28;20047;-62
2021/08/11 04:29:20;;;;;;;43.50;19.27;;;;;;;;;;5097098;28;20109;-63
2021/08/11 04:31:46;;;;;;;57.17;22.08;;;;;;;;;;5095996;28;20036;-63
2021/08/11 04:34:12;;;;;;;47.83;22.33;;;;;;;;;;5093227;28;20099;-63
2021/08/11 04:36:39;;;;;;;41.80;21.80;;;;;;;;;;5098684;28;20059;-62
2021/08/11 04:39:05;;;;;;;42.40;21.60;;;;;;;;;;5096575;28;20050;-63
2021/08/11 04:41:31;;;;;;;44.15;21.75;;;;;;;;;;5096803;28;20123;-62
2021/08/11 04:43:58;;;;;;;36.75;19.55;;;;;;;;;;5095302;28;20043;-62
2021/08/11 04:46:24;;;;;;;37.78;20.08;;;;;;;;;;5093109;28;20071;-63
2021/08/11 04:48:50;;;;;;;37.72;17.88;;;;;;;;;;5097597;28;20048;-63
2021/08/11 04:51:16;;;;;;;42.75;20.58;;;;;;;;;;5096940;28;20052;-63
2021/08/11 04:53:43;;;;;;;35.30;17.92;;;;;;;;;;5096341;28;20511;-64
2021/08/11 04:56:09;;;;;;;34.85;19.17;;;;;;;;;;5096558;28;20044;-63
2021/08/11 04:58:35;;;;;;;40.85;20.27;;;;;;;;;;5094035;28;20466;-63
2021/08/11 05:01:01;;;;;;;33.35;16.05;;;;;;;;;;5084132;28;20044;-64
2021/08/11 05:03:27;;;;;;;36.13;18.17;;;;;;;;;;5095890;28;20043;-64
2021/08/11 05:05:54;;;;;;;35.92;19.48;;;;;;;;;;5094743;28;20040;-64
2021/08/11 05:08:20;;;;;;;32.83;18.00;;;;;;;;;;5096310;28;20109;-63
2021/08/11 05:10:46;;;;;;;40.15;20.50;;;;;;;;;;5095519;28;20376;-64
2021/08/11 05:13:13;;;;;;;45.53;20.35;;;;;;;;;;5092083;28;20522;-64
2021/08/11 05:15:40;;;;;;;37.28;19.20;;;;;;;;;;5097960;28;20403;-64
2021/08/11 05:18:07;;;;;;;31.35;17.30;;;;;;;;;;5096152;28;20036;-64
2021/08/11 05:20:33;;;;;;;37.47;19.15;;;;;;;;;;5095804;28;20059;-64
2021/08/11 05:22:59;;;;;;;41.00;18.77;;;;;;;;;;5094331;28;20044;-64
2021/08/11 05:25:25;;;;;;;36.85;18.88;;;;;;;;;;5090020;28;20051;-64
2021/08/11 05:27:52;;;;;;;39.00;19.77;;;;;;;;;;5096177;28;20048;-64
2021/08/11 05:30:18;;;;;;;39.47;20.60;;;;;;;;;;5096163;28;20048;-65
2021/08/11 05:32:45;;;;;;;41.10;19.17;;;;;;;;;;5093338;28;20036;-64
2021/08/11 05:35:11;;;;;;;43.53;19.27;;;;;;;;;;5088887;28;20566;-65
2021/08/11 05:37:38;;;;;;;34.22;17.80;;;;;;;;;;5104331;28;20064;-65
2021/08/11 05:40:04;;;;;;;30.98;18.33;;;;;;;;;;5088079;28;20044;-65
2021/08/11 05:42:31;;;;;;;29.58;16.08;;;;;;;;;;5091571;28;20495;-65
2021/08/11 05:44:57;;;;;;;25.42;16.02;;;;;;;;;;5085565;28;20082;-65
2021/08/11 05:47:23;;;;;;;25.55;16.98;;;;;;;;;;5083882;28;20047;-66
2021/08/11 05:49:49;;;;;;;26.02;15.57;;;;;;;;;;5092357;28;20502;-65
2021/08/11 05:52:16;;;;;;;21.30;13.35;;;;;;;;;;5089042;28;20097;-65
2021/08/11 05:54:42;;;;;;;20.05;13.50;;;;;;;;;;5085915;28;20068;-66
2021/08/11 05:57:08;;;;;;;19.75;13.82;;;;;;;;;;5083468;28;20047;-66
2021/08/11 05:59:38;;;;;;;21.35;14.88;;;;;;;;;;5083138;28;20096;-66
2021/08/11 06:02:04;;;;;;;28.08;14.35;;;;;;;;;;5086541;28;20421;-65
2021/08/11 06:04:31;;;;;;;20.85;14.20;;;;;;;;;;5087798;28;20479;-66
2021/08/11 06:06:57;;;;;;;22.08;13.80;;;;;;;;;;5084531;28;20062;-65
2021/08/11 06:09:23;;;;;;;17.70;12.45;;;;;;;;;;5086730;28;20176;-65
2021/08/11 06:11:50;;;;;;;19.65;13.07;;;;;;;;;;5085929;28;20052;-66
2021/08/11 06:14:16;;;;;;;20.70;12.95;;;;;;;;;;5085031;28;20044;-66
2021/08/11 06:16:42;;;;;;;23.45;13.43;;;;;;;;;;5087793;28;20040;-66
2021/08/11 06:19:09;;;;;;;19.15;12.60;;;;;;;;;;5072843;28;20472;-66
2021/08/11 06:21:35;;;;;;;17.20;12.90;;;;;;;;;;5084659;28;20080;-66
2021/08/11 06:24:01;;;;;;;19.45;12.13;;;;;;;;;;5085251;28;20407;-66
2021/08/11 06:26:28;;;;;;;16.58;11.75;;;;;;;;;;5074343;28;20041;-66
2021/08/11 06:28:54;;;;;;;16.85;11.55;;;;;;;;;;5082156;28;20036;-66
2021/08/11 06:31:23;;;;;;;15.75;9.48;;;;;;;;;;5071158;28;20045;-67
2021/08/11 06:33:51;;;;;;;14.27;10.50;;;;;;;;;;5074442;28;20452;-65
2021/08/11 06:36:17;;;;;;;16.73;10.30;;;;;;;;;;5086644;28;20044;-65
2021/08/11 06:38:44;;;;;;;16.67;10.45;;;;;;;;;;5083025;28;20063;-66
2021/08/11 06:41:17;;;;;;;15.00;9.55;;;;;;;;;;5101140;28;20093;-66
2021/08/11 06:43:55;;;;;;;13.93;9.00;;;;;;;;;;5082181;28;20046;-65
2021/08/11 06:46:21;;;;;;;15.82;9.20;;;;;;;;;;5091900;28;20097;-66
2021/08/11 06:48:48;;;;;;;13.77;9.55;;;;;;;;;;5061655;28;20052;-65
2021/08/11 06:51:15;;;;;;;12.30;8.43;;;;;;;;;;5091272;28;20048;-65
2021/08/11 06:53:41;;;;;;;16.13;7.90;;;;;;;;;;5091879;28;20082;-66
2021/08/11 06:56:07;;;;;;;12.43;8.02;;;;;;;;;;5092025;28;20040;-65
2021/08/11 06:58:35;;;;;;;17.52;7.88;;;;;;;;;;5092958;28;20048;-66
2021/08/11 07:01:02;;;;;;;14.05;7.35;;;;;;;;;;5092066;28;20074;-66
2021/08/11 07:03:28;;;;;;;11.30;7.10;;;;;;;;;;5101815;28;20399;-63
2021/08/11 07:05:54;;;;;;;14.20;7.50;;;;;;;;;;5104549;28;20077;-64
2021/08/11 07:08:21;;;;;;;15.43;7.25;;;;;;;;;;5105061;28;20125;-65
2021/08/11 07:10:48;;;;;;;13.85;6.93;;;;;;;;;;5097077;28;20044;-63
2021/08/11 07:13:15;;;;;;;10.90;7.97;;;;;;;;;;5092857;28;20085;-64
2021/08/11 07:15:41;;;;;;;12.15;6.90;;;;;;;;;;5099283;28;20072;-66
2021/08/11 07:18:07;;;;;;;13.18;7.55;;;;;;;;;;5097073;28;20043;-66
2021/08/11 07:20:34;;;;;;;11.85;6.35;;;;;;;;;;5095504;28;20044;-66
2021/08/11 07:23:00;;;;;;;9.40;6.07;;;;;;;;;;5095392;28;20101;-67
2021/08/11 07:25:27;;;;;;;13.70;6.35;;;;;;;;;;5093108;28;20403;-66
2021/08/11 07:27:53;;;;;;;11.13;5.75;;;;;;;;;;5097666;28;20347;-66
2021/08/11 07:30:20;;;;;;;10.20;7.05;;;;;;;;;;5097657;28;20411;-67
2021/08/11 07:32:47;;;;;;;10.00;6.38;;;;;;;;;;5096915;28;20044;-66
2021/08/11 07:35:14;;;;;;;9.25;6.50;;;;;;;;;;5096692;28;20461;-68
2021/08/11 07:37:50;;;;;;;14.85;7.22;;;;;;;;;;5095696;28;20056;-68
2021/08/11 07:40:17;;;;;;;9.55;6.95;;;;;;;;;;5100840;28;20049;-67
2021/08/11 07:42:44;;;;;;;9.90;6.35;;;;;;;;;;5098577;28;20503;-64
2021/08/11 07:45:11;;;;;;;9.00;7.03;;;;;;;;;;5096637;28;20048;-67
2021/08/11 07:47:38;;;;;;;13.27;7.25;;;;;;;;;;5095912;28;20454;-68
2021/08/11 07:50:05;;;;;;;10.43;6.32;;;;;;;;;;5096263;28;20090;-67
2021/08/11 07:52:31;;;;;;;10.73;7.07;;;;;;;;;;5093238;28;20052;-68
2021/08/11 07:54:57;;;;;;;11.80;7.28;;;;;;;;;;5095785;28;20040;-67
2021/08/11 07:57:25;;;;;;;8.52;6.65;;;;;;;;;;5097768;28;20079;-66
2021/08/11 07:59:51;;;;;;;9.82;6.10;;;;;;;;;;5095032;28;20059;-67
2021/08/11 08:02:17;;;;;;;8.43;6.35;;;;;;;;;;5094968;28;20471;-68
2021/08/11 08:04:44;;;;;;;14.80;7.15;;;;;;;;;;5094824;28;20040;-68
2021/08/11 08:07:10;;;;;;;13.82;6.82;;;;;;;;;;5092746;28;20115;-66
2021/08/11 08:09:36;;;;;;;7.68;6.00;;;;;;;;;;5098280;28;20462;-66
2021/08/11 08:12:03;;;;;;;6.63;5.88;;;;;;;;;;5096255;28;20140;-67
2021/08/11 08:14:29;;;;;;;10.23;6.55;;;;;;;;;;5095847;28;20137;-68
2021/08/11 08:16:56;;;;;;;10.35;6.22;;;;;;;;;;5096072;28;20047;-68
2021/08/11 08:19:22;;;;;;;8.15;5.80;;;;;;;;;;5073754;28;20523;-67
2021/08/11 08:21:48;;;;;;;9.00;5.43;;;;;;;;;;5097550;28;20040;-67
2021/08/11 08:24:15;;;;;;;11.80;5.97;;;;;;;;;;5096486;28;20113;-68
2021/08/11 08:26:42;;;;;;;9.18;6.20;;;;;;;;;;5095847;28;20044;-70
2021/08/11 08:29:09;;;;;;;10.85;5.53;;;;;;;;;;5095864;28;20192;-68
2021/08/11 08:31:35;;;;;;;8.27;5.47;;;;;;;;;;5093208;28;20040;-69
2021/08/11 08:34:01;;;;;;;13.23;7.63;;;;;;;;;;5093158;28;20927;-68
2021/08/11 08:36:30;;;;;;;6.03;4.93;;;;;;;;;;5093777;28;20048;-68
2021/08/11 08:38:56;;;;;;;7.78;5.22;;;;;;;;;;5092584;28;20044;-68
2021/08/11 08:41:23;;;;;;;10.90;4.95;;;;;;;;;;5098049;28;20047;-70
2021/08/11 08:43:49;;;;;;;5.82;4.15;;;;;;;;;;5098125;28;20043;-69
2021/08/11 08:46:16;;;;;;;7.82;4.63;;;;;;;;;;5091445;28;20314;-70
2021/08/11 08:48:43;;;;;;;6.80;4.55;;;;;;;;;;5098312;28;20085;-70
2021/08/11 08:51:11;;;;;;;8.05;4.53;;;;;;;;;;5095241;28;20048;-70
2021/08/11 08:53:37;;;;;;;5.60;3.78;;;;;;;;;;5095227;28;20101;-68
2021/08/11 08:56:07;;;;;;;6.78;3.90;;;;;;;;;;5095194;28;20435;-68
2021/08/11 08:58:33;;;;;;;4.38;3.00;;;;;;;;;;5092251;28;20047;-70
2021/08/11 09:01:00;;;;;;;4.88;4.03;;;;;;;;;;5094279;28;20048;-69
2021/08/11 09:03:26;;;;;;;5.90;3.75;;;;;;;;;;5078395;28;20067;-69
2021/08/11 09:05:52;;;;;;;5.85;3.53;;;;;;;;;;5095321;28;20063;-69
2021/08/11 09:08:19;;;;;;;4.50;3.47;;;;;;;;;;5095255;28;20403;-68
2021/08/11 09:10:45;;;;;;;6.35;3.50;;;;;;;;;;5094052;28;20063;-69
2021/08/11 09:13:19;;;;;;;4.10;3.17;;;;;;;;;;5091320;28;20048;-69
2021/08/11 09:15:53;;;;;;;6.07;3.83;;;;;;;;;;5104255;28;20047;-69
2021/08/11 09:18:20;;;;;;;6.30;3.30;;;;;;;;;;5094121;28;20043;-68
2021/08/11 09:20:48;;;;;;;5.82;3.33;;;;;;;;;;5093510;28;20043;-68
2021/08/11 09:23:15;;;;;;;3.17;2.58;;;;;;;;;;5094395;28;20503;-67
2021/08/11 09:25:59;;;;;;;5.30;2.67;;;;;;;;;;5093292;28;20055;-68
2021/08/11 09:28:26;;;;;;;7.30;2.90;;;;;;;;;;5075691;28;20112;-71
2021/08/11 09:30:52;;;;;;;5.72;2.88;;;;;;;;;;5095611;28;20395;-70
2021/08/11 09:33:22;;;;;;;4.15;3.08;;;;;;;;;;5093134;28;20050;-67
2021/08/11 09:35:49;;;;;;;4.45;2.80;;;;;;;;;;5095010;28;20499;-69
2021/08/11 09:38:16;;;;;;;4.90;2.88;;;;;;;;;;5094541;28;20047;-67
2021/08/11 09:40:44;;;;;;;4.82;2.88;;;;;;;;;;5093742;28;20050;-69
2021/08/11 09:43:12;;;;;;;5.72;2.90;;;;;;;;;;5090912;28;20396;-69
2021/08/11 09:45:51;;;;;;;4.95;2.60;;;;;;;;;;5091708;28;20044;-68
2021/08/11 09:48:21;;;;;;;4.22;2.83;;;;;;;;;;5095204;28;20079;-68
2021/08/11 09:50:53;;;;;;;6.18;2.78;;;;;;;;;;5094313;28;20431;-68
2021/08/11 09:53:33;;;;;;;4.03;2.50;;;;;;;;;;5093560;28;20094;-67
2021/08/11 09:56:06;;;;;;;4.05;2.10;;;;;;;;;;5093057;28;20486;-69
2021/08/11 09:58:36;;;;;;;3.45;2.08;;;;;;;;;;5090293;28;20040;-70
2021/08/11 10:01:03;;;;;;;2.97;2.17;;;;;;;;;;5092580;28;20051;-71
2021/08/11 10:03:29;;;;;;;3.05;2.13;;;;;;;;;;5095859;28;20044;-69
2021/08/11 10:05:56;;;;;;;5.10;2.42;;;;;;;;;;5094324;28;20068;-66
2021/08/11 10:08:29;;;;;;;4.07;2.20;;;;;;;;;;5094970;28;20032;-68
2021/08/11 10:10:55;;;;;;;3.45;2.00;;;;;;;;;;5094423;28;20039;-69
2021/08/11 10:13:23;;;;;;;4.68;2.60;;;;;;;;;;5090040;28;20044;-72
2021/08/11 10:15:49;;;;;;;5.43;2.40;;;;;;;;;;5096127;28;20499;-67
2021/08/11 10:18:17;;;;;;;3.70;2.50;;;;;;;;;;5093565;28;20076;-67
2021/08/11 10:20:46;;;;;;;4.72;2.30;;;;;;;;;;5094614;28;20392;-68
2021/08/11 10:23:14;;;;;;;3.78;2.38;;;;;;;;;;5094167;28;20044;-69
2021/08/11 10:25:41;;;;;;;3.88;2.47;;;;;;;;;;5075121;28;20085;-67
2021/08/11 10:28:07;;;;;;;3.75;2.17;;;;;;;;;;5091802;28;20079;-69
2021/08/11 10:30:33;;;;;;;3.58;2.33;;;;;;;;;;5096578;28;20503;-70
2021/08/11 10:33:01;;;;;;;3.60;2.15;;;;;;;;;;5094382;28;20491;-70
2021/08/11 10:35:28;;;;;;;4.05;2.30;;;;;;;;;;5092878;28;20081;-70
2021/08/11 10:37:55;;;;;;;2.85;1.95;;;;;;;;;;5092980;28;20066;-68
2021/08/11 10:40:21;;;;;;;2.88;1.80;;;;;;;;;;5072143;28;20072;-64
2021/08/11 10:42:57;;;;;;;4.32;2.33;;;;;;;;;;5096182;28;20077;-71
2021/08/11 10:45:24;;;;;;;5.28;2.20;;;;;;;;;;5095185;28;20114;-67
2021/08/11 10:47:51;;;;;;;3.88;2.30;;;;;;;;;;5094365;28;20519;-67
2021/08/11 10:50:20;;;;;;;6.05;2.80;;;;;;;;;;5094180;28;20047;-69
2021/08/11 10:52:46;;;;;;;4.53;2.35;;;;;;;;;;5092865;28;20051;-70
2021/08/11 10:55:13;;;;;;;5.03;1.90;;;;;;;;;;5090430;28;20526;-69
2021/08/11 10:57:42;;;;;;;4.10;2.00;;;;;;;;;;5096229;28;20052;-70
2021/08/11 11:00:25;;;;;;;3.08;2.17;;;;;;;;;;5094399;28;20415;-69
2021/08/11 11:02:55;;;;;;;4.70;2.45;;;;;;;;;;5094060;28;20144;-70
2021/08/11 11:05:23;;;;;;;4.53;2.13;;;;;;;;;;5094167;28;20100;-69
2021/08/11 11:08:15;;;;;;;4.35;2.30;;;;;;;;;;5093302;28;20047;-69
2021/08/11 11:10:43;;;;;;;3.83;2.53;;;;;;;;;;5079560;28;20043;-64
2021/08/11 11:13:29;;;;;;;7.55;2.13;;;;;;;;;;5090379;28;20534;-69
2021/08/11 11:16:01;;;;;;;2.88;2.10;;;;;;;;;;5103193;28;20055;-70
2021/08/11 11:18:27;;;;;;;2.17;1.48;;;;;;;;;;5094541;28;20105;-70
2021/08/11 11:20:56;;;;;;;3.47;1.88;;;;;;;;;;5093546;28;20044;-70
2021/08/11 11:23:32;;;;;;;4.68;2.00;;;;;;;;;;5095645;28;20083;-70
2021/08/11 11:26:13;;;;;;;3.42;2.15;;;;;;;;;;5093799;28;20048;-73
2021/08/11 11:28:52;;;;;;;2.70;1.85;;;;;;;;;;5090979;28;20058;-73
2021/08/11 11:31:44;;;;;;;3.10;1.98;;;;;;;;;;5092385;28;20053;-70
2021/08/11 11:34:20;;;;;;;3.08;2.20;;;;;;;;;;5086474;28;20048;-72
2021/08/11 11:37:06;;;;;;;3.40;2.17;;;;;;;;;;5094819;28;20498;-69
2021/08/11 11:39:53;;;;;;;4.05;2.35;;;;;;;;;;5097726;28;20157;-71
2021/08/11 11:42:27;;;;;;;3.10;2.22;;;;;;;;;;5088323;28;20549;-71
2021/08/11 11:44:54;;;;;;;3.40;2.17;;;;;;;;;;5097269;28;20075;-71
2021/08/11 11:50:28;;;;;;;2.65;1.95;;;;;;;;;;5103521;28;20059;-64
2021/08/11 11:52:55;;;;;;;4.55;2.03;;;;;;;;;;5095515;28;20096;-72
2021/08/11 11:55:27;;;;;;;3.35;2.00;;;;;;;;;;5099315;28;20427;-67
2021/08/11 11:57:55;;;;;;;2.60;1.90;;;;;;;;;;5090590;28;20052;-69
2021/08/11 12:00:21;;;;;;;5.60;2.38;;;;;;;;;;5091323;28;20560;-70
2021/08/11 12:02:52;;;;;;;3.55;1.92;;;;;;;;;;5091955;28;20079;-69
2021/08/11 12:05:19;;;;;;;3.22;1.85;;;;;;;;;;5094046;28;20036;-70
2021/08/11 12:07:45;;;;;;;6.38;2.13;;;;;;;;;;5094980;28;20039;-70
2021/08/11 12:10:21;;;;;;;3.58;1.63;;;;;;;;;;5091492;28;20079;-73
2021/08/11 12:13:01;;;;;;;3.55;1.85;;;;;;;;;;5098383;28;20628;-74
2021/08/11 12:15:29;;;;;;;2.55;1.90;;;;;;;;;;5096757;28;20865;-70
2021/08/11 12:17:57;;;;;;;4.43;2.20;;;;;;;;;;5095224;28;20518;-72
2021/08/11 12:20:33;;;;;;;6.60;2.80;;;;;;;;;;5096232;28;20071;-73
2021/08/11 12:23:02;;;;;;;4.28;2.05;;;;;;;;;;5096681;28;20407;-74
2021/08/11 12:25:29;;;;;;;4.05;2.90;;;;;;;;;;5092777;28;20440;-73
2021/08/11 12:28:11;;;;;;;4.07;1.73;;;;;;;;;;5096620;28;20052;-70
2021/08/11 12:30:39;;;;;;;3.25;2.13;;;;;;;;;;5098057;28;20495;-72
2021/08/11 12:33:06;;;;;;;2.80;2.10;;;;;;;;;;5094407;28;20182;-74
2021/08/11 12:35:33;;;;;;;4.00;1.85;;;;;;;;;;5094598;28;20071;-70
2021/08/11 12:37:59;;;;;;;2.28;1.65;;;;;;;;;;5096233;28;20040;-70
2021/08/11 12:40:40;;;;;;;5.55;1.30;;;;;;;;;;5092580;28;20114;-69
2021/08/11 12:43:07;;;;;;;5.15;1.92;;;;;;;;;;5093428;28;20109;-68
2021/08/11 12:45:45;;;;;;;2.88;1.88;;;;;;;;;;5092897;28;20040;-70
2021/08/11 12:48:28;;;;;;;4.38;2.08;;;;;;;;;;5090234;28;20040;-68
2021/08/11 12:50:56;;;;;;;3.42;1.63;;;;;;;;;;5100292;27;20500;-71
2021/08/11 12:53:23;;;;;;;2.55;1.88;;;;;;;;;;5086452;28;20091;-71
2021/08/11 12:56:04;;;;;;;3.22;1.75;;;;;;;;;;5094821;28;20070;-70
2021/08/11 12:59:03;;;;;;;3.22;1.98;;;;;;;;;;5078325;28;20067;-73
2021/08/11 13:01:32;;;;;;;2.75;1.80;;;;;;;;;;4997475;28;20160;-72
2021/08/11 13:03:59;;;;;;;3.00;1.85;;;;;;;;;;5013068;28;20564;-72
2021/08/11 13:06:41;;;;;;;2.80;1.85;;;;;;;;;;5015324;28;20540;-74
2021/08/11 13:09:19;;;;;;;4.40;1.70;;;;;;;;;;5014997;28;20171;-72
2021/08/11 13:12:07;;;;;;;2.03;1.38;;;;;;;;;;5015162;28;20057;-71
2021/08/11 13:14:45;;;;;;;3.80;1.60;;;;;;;;;;5014351;28;20080;-71
2021/08/11 13:17:12;;;;;;;2.47;1.60;;;;;;;;;;5014569;28;20437;-70
2021/08/11 13:19:39;;;;;;;2.90;1.50;;;;;;;;;;5013012;28;20520;-69
2021/08/11 13:22:05;;;;;;;2.72;1.50;;;;;;;;;;5012337;28;20054;-71
2021/08/11 13:24:31;;;;;;;3.72;1.50;;;;;;;;;;5017449;28;20053;-70
2021/08/11 13:27:00;;;;;;;4.82;2.05;;;;;;;;;;5019318;28;20088;-69
2021/08/11 13:29:28;;;;;;;3.75;1.40;;;;;;;;;;5020887;28;20125;-72
2021/08/11 13:31:55;;;;;;;2.67;1.38;;;;;;;;;;5009779;28;20046;-74
2021/08/11 13:34:21;;;;;;;2.60;1.60;;;;;;;;;;5008953;28;20610;-70
2021/08/11 13:36:48;;;;;;;4.15;1.67;;;;;;;;;;5046468;28;20094;-71
2021/08/11 13:39:15;;;;;;;2.90;1.88;;;;;;;;;;5090498;28;20157;-74
2021/08/11 13:41:42;;;;;;;3.45;1.90;;;;;;;;;;5095120;28;20514;-72
2021/08/11 13:44:11;;;;;;;5.30;1.67;;;;;;;;;;5093661;28;20054;-73
2021/08/11 13:46:39;;;;;;;6.65;1.42;;;;;;;;;;5089211;28;20040;-71
2021/08/11 13:49:05;;;;;;;2.83;1.67;;;;;;;;;;5092892;28;20067;-72
2021/08/11 13:51:31;;;;;;;15.90;1.77;;;;;;;;;;5102838;28;20068;-73
2021/08/11 13:53:57;;;;;;;2.03;1.45;;;;;;;;;;5092569;28;20055;-72
2021/08/11 13:56:24;;;;;;;5.75;1.77;;;;;;;;;;5094284;28;20072;-73
2021/08/11 13:58:51;;;;;;;2.67;1.65;;;;;;;;;;5094435;28;20058;-73
2021/08/11 14:01:17;;;;;;;3.45;1.52;;;;;;;;;;5090306;28;20097;-72
2021/08/11 14:03:44;;;;;;;4.55;1.50;;;;;;;;;;5095799;28;20076;-71
2021/08/11 14:06:10;;;;;;;3.08;1.63;;;;;;;;;;5094469;28;20139;-67
2021/08/11 14:08:36;;;;;;;4.45;1.50;;;;;;;;;;5094499;28;20122;-69
2021/08/11 14:11:03;;;;;;;2.08;1.40;;;;;;;;;;5094924;28;20040;-68
2021/08/11 14:13:29;;;;;;;3.92;1.40;;;;;;;;;;5091407;28;20464;-67
2021/08/11 14:15:55;;;;;;;1.73;1.25;;;;;;;;;;5095154;28;20063;-70
2021/08/11 14:18:22;;;;;;;3.00;1.30;;;;;;;;;;5095437;28;20380;-70
2021/08/11 14:20:48;;;;;;;3.42;1.30;;;;;;;;;;5095026;28;20048;-69
2021/08/11 14:23:14;;;;;;;1.83;1.00;;;;;;;;;;5094750;28;20150;-71
2021/08/11 14:25:41;;;;;;;1.90;1.23;;;;;;;;;;5092997;28;20040;-62
2021/08/11 14:28:07;;;;;;;2.13;1.25;;;;;;;;;;5092669;28;20052;-63
2021/08/11 14:30:33;;;;;;;1.75;1.20;;;;;;;;;;5076821;28;20051;-67
2021/08/11 14:32:59;;;;;;;3.97;1.50;;;;;;;;;;5075285;28;20538;-68
2021/08/11 14:35:26;;;;;;;3.63;1.60;;;;;;;;;;5094767;28;20070;-68
2021/08/11 14:37:52;;;;;;;3.22;1.50;;;;;;;;;;5094505;28;20047;-67
2021/08/11 14:40:19;;;;;;;3.13;1.40;;;;;;;;;;5090534;28;20119;-66
2021/08/11 14:42:45;;;;;;;2.40;1.38;;;;;;;;;;5096518;28;20089;-70